This is the latest recevied weather packets stored in our database for station/object SP9INZ-13. If no packets are shown the sender has not sent any weather packets the latest 10 day(s).
| Time | Temp. | Humidity | Pressure | Rain* | Wind** | Luminosity | Snow |
|---|---|---|---|---|---|---|---|
| 1777961877 | 20° C | 41% | 1013.8 hPa | - | - | - | - |
| 1777960920 | 18.89° C | 42% | 1014.2 hPa | - | - | - | - |
| 1777959961 | 18.33° C | 43% | 1014.6 hPa | - | - | - | - |
| 1777959003 | 17.78° C | 45% | 1014.7 hPa | - | - | - | - |
| 1777958047 | 16.67° C | 46% | 1015.3 hPa | - | - | - | - |
| 1777957087 | 16.11° C | 45% | 1015.8 hPa | - | - | - | - |
| 1777956129 | 16.11° C | 45% | 1015.8 hPa | - | - | - | - |
| 1777955171 | 16.11° C | 44% | 1016.2 hPa | - | - | - | - |
| 1777954213 | 15.56° C | 45% | 1016.3 hPa | - | - | - | - |
| 1777953255 | 16.67° C | 43% | 1016.1 hPa | - | - | - | - |
| 1777952297 | 15° C | 47% | 1016.5 hPa | - | - | - | - |
| 1777951339 | 15.56° C | 46% | 1016.5 hPa | - | - | - | - |
| 1777950382 | 15.56° C | 46% | 1016.6 hPa | - | - | - | - |
| 1777949431 | 15.56° C | 46% | 1016.7 hPa | - | - | - | - |
| 1777949423 | 15.56° C | 46% | 1016.7 hPa | - | - | - | - |
| 1777948465 | 15° C | 48% | 1017 hPa | - | - | - | - |
| 1777947507 | 15° C | 48% | 1017 hPa | - | - | - | - |
| 1777946550 | 16.67° C | 44% | 1016.9 hPa | - | - | - | - |
| 1777945591 | 17.78° C | 38% | 1016.7 hPa | - | - | - | - |
| 1777944633 | 18.33° C | 37% | 1016.6 hPa | - | - | - | - |
| 1777943675 | 18.89° C | 36% | 1016.5 hPa | - | - | - | - |
| 1777942717 | 18.89° C | 36% | 1016.6 hPa | - | - | - | - |
| 1777941760 | 18.33° C | 36% | 1016.8 hPa | - | - | - | - |
| 1777940802 | 18.89° C | 36% | 1016.9 hPa | - | - | - | - |
| 1777939843 | 18.33° C | 37% | 1017.1 hPa | - | - | - | - |
* Rain since midnight (hover to see other rain measurements)
** Current wind speed in m/s (hover to see current wind gust speed)